Pittsburgh International Airport
KPIT : now visible

Airfield :











YOU CAN JOIN US ON...

 
LOGIN :

Register | Disclaimer

   EN    FR    IT 

 









Legend :    VFR   Marginal VFR   IFR   Intensive IFR   Very Intensive IFR
Visi :
Ceiling :
>= 8 km
>= 3000ft
5 to 8 km
1000 to 3000 ft
1500m to 5 km
500 to 1000 ft
800 to 1500m
200 to 500 ft
< 800m
< 200 ft
Symbols :   Thunderstorms  Fog  Heavy snow  Heavy precipitations  Wind > 20 kt






- Airport Elevation : 1203 ft
- IATA code : PIT


KPIT - Pittsburgh International

CURRENT METAR :
  • 021751Z 33021G26KT 10SM SCT047 13/M03 A3001 RMK AO2 PK WND 31033/1728 SLP173 T01331033 10133 20011 56015

EXPIRED METARs :
  • 021651Z 32018G25KT 10SM SCT038 12/M04 A3002 RMK AO2 PK WND 31026/1559 SLP178 T01221044
  • 021551Z 31014G24KT 10SM FEW035 11/M04 A3004 RMK AO2 PK WND 30028/1540 SLP183 T01111044

TAF KPIT
Valid from the 02 at 18:00 until the 04 at 00:00 UTC


021720Z 0218/0324 32013G25KT P6SM FEW050
FM030100 33008KT P6SM SKC



MET'MAP, your aeronautical weather chart ! - Copyright ORBIFLY December 2007 - Disclaimer

ORBIFLY MET'MAP TEAM :

Programming & Development : Alexandra Zaïnal
Concept & original design : Baudouin d'Aumeries
Assistance for programming : Marc-Olivier Méhu
Technical & hardware support : Manuel Goepfert

Contact : metmap@orbifly.com




SOURCES & CREDITS :

   NOAA       Earth
Advisory